Time;durP1;ratioP1;P1;durP2;ratioP2;P2;SDS_P1;SDS_P2;PMS_P1;PMS_P2;Temp;Humidity;BMP_temperature;BMP_pressure;BME280_temperature;BME280_humidity;BME280_pressure;Samples;Min_cycle;Max_cycle;Signal;HPM_P1;HPM_P2
2023/10/13 00:02:06;;;;;;;14.43;10.03;;;;;;;18.18;63.00;98029.56;5099006;28;20498;-74
2023/10/13 00:04:35;;;;;;;12.23;9.60;;;;;;;18.31;62.25;98033.84;5099564;28;21050;-74
2023/10/13 00:07:03;;;;;;;11.97;10.00;;;;;;;18.32;61.43;98030.00;5098729;28;20458;-74
2023/10/13 00:09:32;;;;;;;11.60;9.30;;;;;;;18.42;61.06;98021.94;5103400;28;20448;-74
2023/10/13 00:11:59;;;;;;;11.60;9.77;;;;;;;18.28;60.84;98018.72;5102611;28;20553;-74
2023/10/13 00:14:33;;;;;;;11.87;9.70;;;;;;;18.25;60.57;98015.66;5096440;28;21266;-74
2023/10/13 00:17:04;;;;;;;11.63;10.43;;;;;;;18.51;60.13;98014.94;5099551;28;20484;-74
2023/10/13 00:19:38;;;;;;;13.60;9.80;;;;;;;18.46;59.77;98012.13;5104430;28;20484;-74
2023/10/13 00:22:09;;;;;;;12.20;10.13;;;;;;;18.46;59.92;98006.66;5104066;28;20978;-74
2023/10/13 00:24:42;;;;;;;10.60;8.30;;;;;;;18.43;58.98;98009.91;5099279;28;21032;-73
2023/10/13 00:27:24;;;;;;;10.03;7.80;;;;;;;18.39;58.50;98015.06;5092914;28;20449;-74
2023/10/13 00:30:04;;;;;;;10.73;8.50;;;;;;;18.44;58.11;98022.53;5101622;28;20483;-74
2023/10/13 00:32:37;;;;;;;9.03;7.63;;;;;;;18.57;58.02;98005.69;5101085;28;20490;-74
2023/10/13 00:35:06;;;;;;;9.87;8.60;;;;;;;18.54;58.13;98008.94;5111574;28;20514;-74
2023/10/13 00:37:41;;;;;;;9.27;8.33;;;;;;;18.41;58.92;98007.41;5104380;28;20479;-74
2023/10/13 00:40:24;;;;;;;11.50;9.03;;;;;;;18.32;59.71;98006.19;5099803;28;20461;-74
2023/10/13 00:42:53;;;;;;;11.50;9.50;;;;;;;18.12;60.12;98000.41;5099957;28;20972;-74
2023/10/13 00:45:19;;;;;;;11.40;8.97;;;;;;;17.90;60.51;98000.34;5100388;28;21029;-74
2023/10/13 00:47:49;;;;;;;9.97;8.20;;;;;;;17.84;60.71;97997.78;5104120;28;20450;-74
2023/10/13 00:50:17;;;;;;;8.90;8.00;;;;;;;17.81;60.04;98004.59;5103755;28;20455;-73
2023/10/13 00:52:46;;;;;;;9.93;8.90;;;;;;;17.91;60.15;98012.97;5095740;28;20503;-74
2023/10/13 00:55:14;;;;;;;9.93;8.80;;;;;;;17.87;60.46;98011.78;5102772;28;20488;-74
2023/10/13 00:57:40;;;;;;;11.70;9.60;;;;;;;17.98;60.53;98001.84;5109511;28;20451;-74
2023/10/13 01:00:18;;;;;;;12.97;9.80;;;;;;;17.85;61.22;98002.19;5099985;28;20493;-74
2023/10/13 01:02:45;;;;;;;10.57;9.47;;;;;;;17.66;61.27;98005.16;5105445;28;21031;-74
2023/10/13 01:05:19;;;;;;;10.47;8.70;;;;;;;17.69;61.32;98010.16;5104059;28;20511;-75
2023/10/13 01:07:46;;;;;;;10.90;9.43;;;;;;;17.68;61.26;98008.50;5101699;28;20480;-74
2023/10/13 01:10:14;;;;;;;9.73;8.80;;;;;;;17.74;61.52;98004.75;5103878;28;20785;-74
2023/10/13 01:12:43;;;;;;;12.20;9.27;;;;;;;17.73;61.01;98000.38;5100444;28;20527;-74
2023/10/13 01:15:11;;;;;;;13.93;9.73;;;;;;;17.49;61.65;97992.53;5102723;28;20480;-74
2023/10/13 01:17:37;;;;;;;11.07;9.43;;;;;;;17.47;61.88;98003.72;5104754;28;20507;-74
2023/10/13 01:20:08;;;;;;;15.37;9.80;;;;;;;17.67;61.43;97995.88;5105756;28;20488;-74
2023/10/13 01:22:38;;;;;;;10.77;9.10;;;;;;;17.71;61.41;98001.69;5104897;28;20203;-74
2023/10/13 01:25:07;;;;;;;11.93;8.80;;;;;;;17.61;61.62;97991.34;5096143;28;20473;-74
2023/10/13 01:27:38;;;;;;;10.43;8.43;;;;;;;17.55;61.79;97988.78;5102001;28;20978;-74
2023/10/13 01:30:10;;;;;;;9.80;8.90;;;;;;;17.42;61.85;97988.03;5101072;28;20462;-74
2023/10/13 01:32:40;;;;;;;9.97;8.57;;;;;;;17.46;61.55;97983.75;5099760;28;20446;-74
2023/10/13 01:35:08;;;;;;;9.60;7.90;;;;;;;17.51;61.27;97987.66;5097252;28;20580;-74
2023/10/13 01:37:33;;;;;;;9.37;6.93;;;;;;;17.33;61.40;97992.25;5103765;28;20495;-74
2023/10/13 01:40:00;;;;;;;8.90;8.00;;;;;;;17.30;61.63;97979.06;5105379;28;20448;-74
2023/10/13 01:42:30;;;;;;;9.50;8.40;;;;;;;17.25;61.89;97981.69;5100300;28;20508;-74
2023/10/13 01:45:05;;;;;;;9.93;7.43;;;;;;;17.35;61.11;97981.06;5099476;28;21002;-74
2023/10/13 01:47:32;;;;;;;11.37;7.37;;;;;;;17.20;61.79;97978.06;5101545;28;20982;-74
2023/10/13 01:50:06;;;;;;;9.70;7.33;;;;;;;17.24;61.13;97979.22;5107340;28;20950;-74
2023/10/13 01:52:32;;;;;;;8.37;7.27;;;;;;;17.11;61.03;97981.19;5099876;28;20457;-74
2023/10/13 01:55:01;;;;;;;8.30;7.17;;;;;;;17.11;60.50;97985.84;5096996;28;20533;-74
2023/10/13 01:57:28;;;;;;;10.57;6.60;;;;;;;17.13;59.97;97972.75;5100868;28;20223;-73
2023/10/13 01:59:55;;;;;;;7.30;6.50;;;;;;;17.25;59.27;97976.22;5103670;28;20445;-74
2023/10/13 02:02:28;;;;;;;6.83;6.13;;;;;;;17.29;58.62;97973.84;5101288;28;20471;-74
2023/10/13 02:05:00;;;;;;;7.97;5.20;;;;;;;17.25;57.86;97970.75;5109807;28;20566;-74
2023/10/13 02:07:29;;;;;;;7.20;5.70;;;;;;;17.13;57.93;97961.81;5104197;28;20464;-74
2023/10/13 02:09:55;;;;;;;8.63;5.80;;;;;;;17.16;57.22;97961.31;5105695;28;20789;-74
2023/10/13 02:12:25;;;;;;;7.23;5.13;;;;;;;17.23;57.14;97958.41;5099578;28;20467;-74
2023/10/13 02:14:53;;;;;;;6.20;5.50;;;;;;;17.24;57.22;97963.63;5097354;28;20318;-73
2023/10/13 02:17:21;;;;;;;10.97;5.77;;;;;;;17.31;56.81;97964.31;5103092;28;21317;-74
2023/10/13 02:19:47;;;;;;;6.50;5.40;;;;;;;17.29;56.80;97951.94;5104645;28;20461;-74
2023/10/13 02:22:28;;;;;;;8.10;5.67;;;;;;;17.25;56.87;97948.03;5106531;28;20433;-74
2023/10/13 02:25:01;;;;;;;6.63;5.80;;;;;;;17.22;57.14;97938.44;5099726;28;20481;-74
2023/10/13 02:27:28;;;;;;;7.70;5.67;;;;;;;17.10;56.95;97934.94;5104629;28;20460;-74
2023/10/13 02:29:58;;;;;;;6.73;5.60;;;;;;;17.13;57.27;97939.94;5101491;28;20448;-74
2023/10/13 02:32:26;;;;;;;6.47;5.33;;;;;;;17.14;56.63;97938.84;5102231;28;20449;-74
2023/10/13 02:34:52;;;;;;;6.20;5.27;;;;;;;17.17;56.99;97935.63;5100842;28;20481;-74
2023/10/13 02:37:20;;;;;;;6.57;5.90;;;;;;;17.13;56.97;97929.00;5104405;28;20536;-74
2023/10/13 02:39:45;;;;;;;7.53;6.17;;;;;;;17.04;57.18;97919.53;5103902;28;20452;-74
2023/10/13 02:42:23;;;;;;;7.50;6.00;;;;;;;16.98;57.38;97920.50;5095679;28;20448;-74
2023/10/13 02:44:49;;;;;;;8.70;5.57;;;;;;;16.96;57.45;97922.66;5095498;28;20227;-74
2023/10/13 02:47:19;;;;;;;7.60;5.37;;;;;;;16.95;57.47;97923.72;5102241;28;20463;-74
2023/10/13 02:49:47;;;;;;;6.90;5.43;;;;;;;16.87;57.77;97926.88;5101664;28;20327;-74
2023/10/13 02:52:15;;;;;;;5.80;5.17;;;;;;;16.99;57.31;97916.69;5097451;28;20877;-74
2023/10/13 02:54:46;;;;;;;7.07;5.27;;;;;;;16.99;57.25;97916.69;5100465;28;20568;-73
2023/10/13 02:57:12;;;;;;;8.77;4.80;;;;;;;16.98;57.24;97898.63;5098684;28;20485;-74
2023/10/13 02:59:46;;;;;;;6.80;5.00;;;;;;;16.75;57.49;97908.63;5098969;28;20817;-74
2023/10/13 03:02:23;;;;;;;6.00;5.40;;;;;;;16.70;57.38;97913.16;5101928;28;20449;-74
2023/10/13 03:04:59;;;;;;;6.20;4.90;;;;;;;16.88;57.12;97904.78;5094139;28;20480;-73
2023/10/13 03:07:28;;;;;;;8.30;4.63;;;;;;;16.64;57.62;97904.03;5102983;28;20531;-74
2023/10/13 03:09:57;;;;;;;6.63;5.23;;;;;;;16.62;58.07;97906.16;5100641;28;20477;-73
2023/10/13 03:12:24;;;;;;;7.37;4.90;;;;;;;16.62;57.97;97910.78;5104500;28;20444;-74
2023/10/13 03:14:55;;;;;;;5.93;5.43;;;;;;;16.57;57.69;97903.31;5093017;28;20495;-74
2023/10/13 03:17:33;;;;;;;6.03;5.20;;;;;;;16.63;57.61;97913.25;5101454;28;20830;-74
2023/10/13 03:20:01;;;;;;;5.30;4.80;;;;;;;16.55;57.88;97902.75;5101442;28;20457;-74
2023/10/13 03:22:30;;;;;;;5.73;4.90;;;;;;;16.43;57.77;97901.94;5103228;28;20487;-75
2023/10/13 03:24:59;;;;;;;6.07;4.77;;;;;;;16.55;57.51;97904.66;5097198;28;21230;-74
2023/10/13 03:27:39;;;;;;;6.40;4.70;;;;;;;16.34;57.97;97898.78;5101637;28;20489;-74
2023/10/13 03:30:14;;;;;;;5.37;4.73;;;;;;;16.31;58.06;97895.69;5098829;28;20499;-74
2023/10/13 03:32:45;;;;;;;6.50;4.80;;;;;;;16.21;58.22;97893.59;5100721;28;20448;-73
2023/10/13 03:35:23;;;;;;;8.97;5.20;;;;;;;16.25;58.24;97889.28;5097850;28;20476;-74
2023/10/13 03:37:50;;;;;;;8.50;4.63;;;;;;;16.36;57.65;97896.63;5112552;28;20471;-77
2023/10/13 03:43:04;;;;;;;4.80;4.40;;;;;;;16.19;57.81;97895.75;5096287;28;21280;-74
2023/10/13 03:45:36;;;;;;;6.63;4.90;;;;;;;16.27;58.10;97897.25;5099746;28;20475;-74
2023/10/13 03:48:09;;;;;;;5.40;4.40;;;;;;;16.23;58.06;97890.63;5087848;28;20464;-74
2023/10/13 03:50:40;;;;;;;6.13;5.30;;;;;;;16.25;58.15;97892.00;5096492;28;20479;-74
2023/10/13 03:53:12;;;;;;;8.53;5.50;;;;;;;16.16;58.30;97892.66;5101228;28;20860;-75
2023/10/13 03:55:40;;;;;;;6.70;4.60;;;;;;;16.08;58.64;97894.69;5103013;28;20498;-75
2023/10/13 03:58:10;;;;;;;5.37;4.63;;;;;;;15.97;58.87;97898.25;5101813;28;20498;-75
2023/10/13 04:00:38;;;;;;;7.33;5.10;;;;;;;16.12;58.51;97895.03;5097360;28;20449;-75
2023/10/13 04:03:09;;;;;;;5.33;4.77;;;;;;;16.22;58.19;97894.44;5100418;28;20497;-75
2023/10/13 04:05:44;;;;;;;6.90;4.90;;;;;;;16.15;58.23;97893.72;5101152;28;20536;-75
2023/10/13 04:16:50;;;;;;;9.23;5.33;;;;;;;16.36;57.79;97891.16;5106273;28;20554;-74
2023/10/13 04:19:22;;;;;;;6.07;5.17;;;;;;;16.26;57.80;97899.13;5103202;28;20548;-75
2023/10/13 04:22:14;;;;;;;8.87;6.13;;;;;;;16.27;57.49;97899.97;5102891;28;20458;-74
2023/10/13 04:27:44;;;;;;;7.90;5.50;;;;;;;16.23;57.83;97896.09;5106448;28;20444;-73
2023/10/13 04:30:19;;;;;;;6.23;5.63;;;;;;;16.31;57.81;97887.50;5104046;28;20991;-76
2023/10/13 04:32:52;;;;;;;5.70;5.10;;;;;;;16.33;57.54;97874.44;5102323;28;20445;-74
2023/10/13 04:35:20;;;;;;;6.13;5.50;;;;;;;16.46;57.70;97876.88;5105717;28;20460;-74
2023/10/13 04:37:50;;;;;;;6.30;5.80;;;;;;;16.30;57.70;97875.75;5102511;28;20487;-76
2023/10/13 04:40:24;;;;;;;9.70;6.40;;;;;;;16.06;58.50;97874.16;5105754;28;21240;-75
2023/10/13 04:42:53;;;;;;;6.90;5.17;;;;;;;16.21;58.19;97876.38;5103489;28;20457;-75
2023/10/13 04:48:28;;;;;;;9.37;6.10;;;;;;;16.05;58.47;97862.41;5072469;28;20453;-74
2023/10/13 04:51:23;;;;;;;8.83;5.93;;;;;;;15.94;59.30;97865.16;5101006;28;20451;-74
2023/10/13 04:54:01;;;;;;;8.50;5.50;;;;;;;15.79;59.31;97858.31;5104448;28;20550;-74
2023/10/13 04:59:17;;;;;;;10.40;5.93;;;;;;;15.67;59.92;97859.38;5110091;28;21009;-75
2023/10/13 05:04:38;;;;;;;6.07;5.47;;;;;;;15.56;60.16;97861.09;5101932;28;20476;-74
2023/10/13 05:48:24;;;;;;;7.27;5.97;;;;;;;15.27;61.61;97830.09;5082439;28;20483;-75
2023/10/13 05:51:31;;;;;;;11.80;6.33;;;;;;;15.32;61.78;97840.28;5109333;28;20444;-75
2023/10/13 06:29:21;;;;;;;9.83;7.40;;;;;;;15.48;63.49;97855.13;5102219;28;20451;-76
2023/10/13 06:31:49;;;;;;;12.10;7.30;;;;;;;15.42;63.79;97857.72;5106246;28;20554;-75
2023/10/13 06:34:20;;;;;;;9.07;7.17;;;;;;;15.54;63.69;97867.81;5107921;28;20551;-75
2023/10/13 06:36:47;;;;;;;7.30;6.37;;;;;;;15.53;63.56;97864.25;5108973;28;21058;-77
2023/10/13 06:39:35;;;;;;;7.60;6.80;;;;;;;15.58;63.33;97852.66;5112710;28;20494;-76
2023/10/13 06:42:03;;;;;;;10.77;7.20;;;;;;;15.76;62.96;97852.50;5105891;28;20509;-76
2023/10/13 06:44:32;;;;;;;10.83;6.37;;;;;;;15.80;62.67;97850.97;5099496;28;20479;-75
2023/10/13 06:47:03;;;;;;;12.37;7.00;;;;;;;15.88;62.57;97849.75;5101574;28;20451;-76
2023/10/13 06:49:32;;;;;;;8.97;6.77;;;;;;;15.96;61.86;97850.19;5101278;28;20493;-76
2023/10/13 06:52:00;;;;;;;9.10;6.20;;;;;;;16.05;61.19;97851.47;5098886;28;20451;-75
2023/10/13 06:54:28;;;;;;;7.93;6.30;;;;;;;16.31;60.46;97851.97;5100438;28;20480;-76
2023/10/13 06:56:57;;;;;;;7.60;6.20;;;;;;;16.46;59.65;97852.28;5100372;28;20511;-76
2023/10/13 06:59:26;;;;;;;9.20;5.90;;;;;;;16.56;59.25;97848.94;5104114;28;20952;-76
2023/10/13 07:01:54;;;;;;;8.10;5.60;;;;;;;16.64;59.05;97854.84;5101616;28;20453;-76
2023/10/13 07:04:23;;;;;;;7.40;6.60;;;;;;;16.95;58.47;97860.84;5106990;28;20477;-76
2023/10/13 07:06:50;;;;;;;9.90;6.00;;;;;;;17.25;56.79;97853.13;5104889;28;20456;-76
2023/10/13 07:09:40;;;;;;;9.03;6.10;;;;;;;17.62;55.43;97852.59;5105557;28;20511;-76
2023/10/13 07:12:16;;;;;;;8.03;6.13;;;;;;;18.19;54.42;97855.06;5106798;28;20456;-76
2023/10/13 07:14:51;;;;;;;6.57;5.70;;;;;;;18.70;52.34;97854.56;5107005;28;20459;-76
2023/10/13 07:17:23;;;;;;;11.87;6.87;;;;;;;19.19;51.35;97848.94;5107306;28;20482;-76
2023/10/13 07:20:01;;;;;;;8.40;6.60;;;;;;;19.44;50.12;97845.59;5103329;28;20854;-76
2023/10/13 07:22:28;;;;;;;8.57;6.70;;;;;;;19.91;49.72;97845.63;5104364;28;20464;-77
2023/10/13 07:24:58;;;;;;;8.90;6.10;;;;;;;20.10;48.28;97843.25;5106673;28;20540;-76
2023/10/13 07:27:24;;;;;;;9.90;6.33;;;;;;;20.35;47.64;97850.75;5106925;28;20444;-76
2023/10/13 07:30:13;;;;;;;10.87;6.00;;;;;;;20.53;47.18;97858.53;5107251;28;20518;-76
2023/10/13 07:32:44;;;;;;;7.97;6.40;;;;;;;20.93;45.71;97845.97;5102427;28;20466;-76
2023/10/13 07:35:13;;;;;;;13.13;6.60;;;;;;;21.69;44.66;97845.97;5106964;28;20449;-76
2023/10/13 07:37:41;;;;;;;11.03;6.87;;;;;;;21.60;44.50;97844.88;5105645;28;20495;-76
2023/10/13 07:40:22;;;;;;;10.13;6.00;;;;;;;21.93;43.72;97849.75;5106187;28;20456;-75
2023/10/13 07:42:49;;;;;;;8.20;6.60;;;;;;;22.19;43.23;97853.28;5102928;28;20468;-76
2023/10/13 07:45:24;;;;;;;7.10;5.93;;;;;;;22.43;42.97;97831.38;5102445;28;20492;-76
2023/10/13 07:47:51;;;;;;;7.00;5.60;;;;;;;22.54;41.95;97832.97;5100595;28;20777;-76
2023/10/13 07:50:25;;;;;;;9.23;5.60;;;;;;;22.44;42.31;97841.31;5108194;28;20986;-76
2023/10/13 07:52:58;;;;;;;8.20;5.70;;;;;;;21.94;43.24;97834.88;5101363;28;20476;-76
2023/10/13 07:55:25;;;;;;;6.43;5.83;;;;;;;22.33;43.22;97842.47;5108995;28;20446;-76
2023/10/13 07:57:56;;;;;;;9.03;5.70;;;;;;;22.50;42.18;97842.09;5107589;28;21145;-77
2023/10/13 08:00:46;;;;;;;7.70;7.00;;;;;;;22.99;41.61;97836.59;5102904;28;21020;-76
2023/10/13 08:03:31;;;;;;;9.87;8.07;;;;;;;23.42;40.67;97832.91;5096059;28;20576;-76
2023/10/13 08:06:04;;;;;;;10.13;5.73;;;;;;;23.54;39.63;97834.50;5106001;28;20466;-76
2023/10/13 08:08:37;;;;;;;7.23;5.83;;;;;;;23.52;39.62;97832.00;5111370;28;20451;-76
2023/10/13 08:11:11;;;;;;;6.27;5.67;;;;;;;23.45;40.07;97835.09;5107185;28;20460;-77
2023/10/13 08:13:46;;;;;;;9.17;5.83;;;;;;;23.92;38.87;97830.78;5101298;28;20472;-77
2023/10/13 08:16:20;;;;;;;8.50;5.73;;;;;;;23.68;39.20;97827.19;5100628;28;20813;-77
2023/10/13 08:18:49;;;;;;;13.07;5.83;;;;;;;24.67;37.82;97828.22;5102518;28;20488;-76
2023/10/13 08:21:22;;;;;;;10.47;6.03;;;;;;;24.31;37.48;97825.09;5099952;28;20465;-77
2023/10/13 08:23:59;;;;;;;6.80;5.33;;;;;;;24.56;36.77;97823.09;5106988;28;20554;-77
2023/10/13 08:32:14;;;;;;;9.33;5.10;;;;;;;24.62;37.54;97810.84;5101684;28;20975;-77
2023/10/13 08:35:09;;;;;;;8.60;6.10;;;;;;;24.60;36.71;97813.91;5107469;28;20522;-77
2023/10/13 08:37:33;;;;;;;6.37;5.43;;;;;;;24.68;36.82;97802.16;5109738;28;20577;-77
2023/10/13 08:42:52;;;;;;;8.70;5.70;;;;;;;25.34;35.03;97801.09;5103355;28;20461;-76
2023/10/13 08:45:53;;;;;;;6.67;5.10;;;;;;;25.31;34.79;97796.19;5109945;28;20466;-76
2023/10/13 08:48:12;;;;;;;8.50;5.40;;;;;;;25.40;34.37;97797.13;5109754;28;20551;-77
2023/10/13 08:50:48;;;;;;;7.37;5.20;;;;;;;25.44;34.00;97797.34;5109813;28;20970;-77
2023/10/13 08:53:26;;;;;;;10.00;5.10;;;;;;;25.51;33.99;97799.72;5109888;28;20487;-77
2023/10/13 08:56:04;;;;;;;7.17;4.60;;;;;;;25.66;33.63;97793.94;5106597;28;20460;-76
2023/10/13 09:01:13;;;;;;;5.57;4.50;;;;;;;26.24;32.66;97796.94;5106841;28;20536;-77
2023/10/13 09:03:41;;;;;;;6.77;4.20;;;;;;;25.68;33.09;97781.38;5107026;28;20504;-77
2023/10/13 09:06:14;;;;;;;4.40;3.97;;;;;;;25.66;32.79;97791.19;5102712;28;20440;-76
2023/10/13 09:09:03;;;;;;;5.50;4.57;;;;;;;25.53;33.11;97775.31;5110391;28;20528;-77
2023/10/13 09:11:48;;;;;;;4.90;4.27;;;;;;;26.27;32.18;97782.44;5105523;28;20464;-77
2023/10/13 09:14:33;;;;;;;5.20;4.33;;;;;;;26.44;32.12;97773.47;5107063;28;20476;-77
2023/10/13 09:17:08;;;;;;;7.53;4.30;;;;;;;26.54;31.47;97778.81;5109107;28;21042;-77
2023/10/13 09:19:48;;;;;;;5.20;4.40;;;;;;;26.93;30.49;97775.41;5107913;28;20870;-77
2023/10/13 09:22:26;;;;;;;6.00;4.53;;;;;;;27.05;30.54;97780.41;5104094;28;20834;-77
2023/10/13 09:24:58;;;;;;;5.37;4.60;;;;;;;27.18;29.87;97771.19;5109527;28;20967;-76
2023/10/13 09:27:26;;;;;;;9.27;4.73;;;;;;;27.24;29.29;97775.50;5104404;28;20497;-77
2023/10/13 09:29:58;;;;;;;5.40;3.73;;;;;;;27.40;29.46;97768.38;5110571;28;20453;-77
2023/10/13 09:32:23;;;;;;;6.40;3.90;;;;;;;27.16;30.19;97773.47;5105100;28;20480;-76
2023/10/13 09:34:51;;;;;;;5.97;4.13;;;;;;;27.51;29.33;97762.56;5102197;28;20956;-76
2023/10/13 09:37:20;;;;;;;9.57;4.90;;;;;;;27.73;28.84;97770.88;5108530;28;20222;-76
2023/10/13 09:39:52;;;;;;;6.70;3.80;;;;;;;28.09;28.38;97767.91;5110167;28;21200;-76
2023/10/13 09:42:23;;;;;;;6.10;4.30;;;;;;;27.87;29.21;97759.66;5105236;28;20559;-76
2023/10/13 09:44:58;;;;;;;6.90;4.03;;;;;;;28.21;27.74;97754.22;5103579;28;20454;-76
2023/10/13 09:47:29;;;;;;;7.23;4.60;;;;;;;28.06;28.13;97751.84;5102640;28;20487;-76
2023/10/13 09:50:04;;;;;;;6.43;4.40;;;;;;;27.48;29.53;97752.91;5103976;28;20449;-76
2023/10/13 09:52:31;;;;;;;4.57;4.17;;;;;;;27.26;28.42;97752.94;5107120;28;20475;-77
2023/10/13 09:55:09;;;;;;;5.93;3.47;;;;;;;26.96;26.63;97751.75;5101746;28;20452;-76
2023/10/13 09:57:44;;;;;;;4.17;3.53;;;;;;;27.73;26.21;97754.19;5108117;28;21070;-76
2023/10/13 10:03:05;;;;;;;6.73;3.70;;;;;;;28.27;25.21;97738.16;5107659;28;21003;-75
2023/10/13 10:05:34;;;;;;;7.17;3.57;;;;;;;28.34;25.33;97746.88;5109224;28;20448;-75
2023/10/13 10:08:02;;;;;;;3.93;3.37;;;;;;;28.87;25.57;97737.44;5103527;28;20448;-75
2023/10/13 10:10:46;;;;;;;7.30;3.63;;;;;;;28.81;24.89;97738.72;5104200;28;20444;-75
2023/10/13 10:13:23;;;;;;;8.63;3.93;;;;;;;28.90;24.17;97726.47;5106574;28;20507;-77
2023/10/13 10:15:49;;;;;;;6.33;3.50;;;;;;;28.83;24.35;97730.88;5106602;28;20461;-76
2023/10/13 10:18:21;;;;;;;4.73;3.47;;;;;;;28.46;25.14;97727.56;5102487;28;20912;-77
2023/10/13 10:20:51;;;;;;;4.63;3.50;;;;;;;28.66;24.41;97721.34;5105696;28;20535;-76
2023/10/13 10:23:27;;;;;;;4.90;3.40;;;;;;;28.76;24.23;97734.94;5101649;28;20571;-76
2023/10/13 10:26:04;;;;;;;5.13;3.67;;;;;;;28.77;25.01;97717.09;5104839;28;20453;-76
2023/10/13 10:28:37;;;;;;;8.50;4.40;;;;;;;28.91;24.26;97716.13;5106876;28;20543;-76
2023/10/13 10:31:09;;;;;;;4.70;3.27;;;;;;;28.23;25.06;97717.72;5102785;28;20482;-76
2023/10/13 10:33:36;;;;;;;5.67;3.60;;;;;;;27.33;26.68;97712.41;5104643;28;20836;-76
2023/10/13 10:36:05;;;;;;;5.33;3.43;;;;;;;26.97;26.85;97725.59;5106223;28;20484;-75
2023/10/13 10:38:34;;;;;;;5.03;3.50;;;;;;;26.75;27.45;97718.88;5106531;28;20538;-75
2023/10/13 10:41:04;;;;;;;5.73;3.50;;;;;;;26.86;27.65;97707.53;5103711;28;20552;-75
2023/10/13 10:43:42;;;;;;;5.40;3.93;;;;;;;27.42;26.26;97704.94;5102338;28;20528;-76
2023/10/13 10:46:10;;;;;;;6.50;3.60;;;;;;;27.87;26.77;97693.69;5104096;28;20459;-76
2023/10/13 10:48:39;;;;;;;5.60;4.00;;;;;;;28.57;25.17;97689.09;5107482;28;20467;-76
2023/10/13 10:51:13;;;;;;;5.63;3.30;;;;;;;29.01;25.19;97693.47;5107803;28;20453;-76
2023/10/13 10:53:44;;;;;;;4.47;3.17;;;;;;;28.90;25.26;97687.44;5101439;28;20543;-76
2023/10/13 10:56:36;;;;;;;6.23;3.80;;;;;;;28.08;25.68;97675.25;5107112;28;20453;-76
2023/10/13 10:59:08;;;;;;;4.50;3.53;;;;;;;28.01;26.23;97677.69;5095241;28;20568;-76
2023/10/13 11:01:46;;;;;;;9.10;3.60;;;;;;;28.13;26.16;97679.00;5088887;28;20460;-76
2023/10/13 11:04:18;;;;;;;6.00;3.57;;;;;;;27.99;25.65;97673.56;5096806;28;20460;-76
2023/10/13 11:06:49;;;;;;;4.50;3.40;;;;;;;27.88;26.21;97666.69;5096043;28;20454;-76
2023/10/13 11:09:31;;;;;;;5.30;3.70;;;;;;;28.18;26.19;97676.09;5091058;28;20482;-76
2023/10/13 11:12:03;;;;;;;10.20;3.80;;;;;;;28.68;25.54;97671.69;5109856;28;20473;-76
2023/10/13 11:14:31;;;;;;;4.90;3.40;;;;;;;29.20;25.01;97660.47;5100895;28;20449;-76
2023/10/13 11:17:04;;;;;;;6.57;3.60;;;;;;;29.72;24.13;97652.72;5095478;28;20446;-77
2023/10/13 11:19:35;;;;;;;4.43;3.50;;;;;;;30.27;23.60;97653.72;5095958;28;20484;-76
2023/10/13 11:22:11;;;;;;;5.43;4.07;;;;;;;29.98;23.45;97655.38;5101553;28;20888;-77
2023/10/13 11:24:42;;;;;;;6.70;3.53;;;;;;;30.11;23.21;97641.53;5103642;28;20444;-76
2023/10/13 11:27:20;;;;;;;4.97;3.10;;;;;;;30.15;22.88;97645.28;5102003;28;20468;-76
2023/10/13 11:29:52;;;;;;;5.50;3.23;;;;;;;30.04;22.53;97620.53;5100812;28;20489;-76
2023/10/13 11:32:22;;;;;;;6.87;3.43;;;;;;;30.26;22.57;97646.50;5104748;28;20472;-76
2023/10/13 11:34:54;;;;;;;4.77;3.40;;;;;;;30.42;22.20;97642.75;5100754;28;20459;-76
2023/10/13 11:40:12;;;;;;;4.70;3.10;;;;;;;30.16;22.57;97641.34;5079896;28;20458;-76
2023/10/13 11:42:43;;;;;;;7.80;3.80;;;;;;;29.81;22.92;97633.16;5086545;28;20503;-76
2023/10/13 11:45:28;;;;;;;5.73;3.60;;;;;;;29.96;23.11;97629.75;5099614;28;20975;-76
2023/10/13 11:47:59;;;;;;;7.80;3.63;;;;;;;30.97;21.87;97624.00;5105863;28;20483;-76
2023/10/13 11:50:34;;;;;;;5.27;3.63;;;;;;;30.24;23.08;97624.50;5095515;28;20445;-76
2023/10/13 11:53:00;;;;;;;3.87;3.20;;;;;;;30.38;22.25;97616.66;5097250;28;20467;-76
2023/10/13 11:55:28;;;;;;;4.37;3.20;;;;;;;30.41;22.17;97618.78;5104418;28;20544;-75
2023/10/13 11:57:59;;;;;;;6.10;3.43;;;;;;;30.33;22.36;97613.25;5100453;28;20936;-76
2023/10/13 12:00:50;;;;;;;3.50;3.00;;;;;;;30.37;22.38;97603.03;5101067;28;21032;-76
2023/10/13 12:06:19;;;;;;;5.53;3.90;;;;;;;30.19;22.37;97598.78;5002357;28;20461;-76
2023/10/13 12:08:51;;;;;;;5.40;4.40;;;;;;;30.32;21.92;97603.25;5100922;28;20476;-76
2023/10/13 12:11:38;;;;;;;7.90;4.10;;;;;;;30.19;21.51;97604.34;5095472;28;20560;-76
2023/10/13 12:14:16;;;;;;;5.80;3.27;;;;;;;30.34;20.58;97596.16;5106024;28;22439;-76
2023/10/13 12:16:48;;;;;;;5.93;3.30;;;;;;;30.14;20.95;97582.22;5102221;28;20452;-76
2023/10/13 12:19:16;;;;;;;5.70;3.60;;;;;;;30.23;21.17;97572.59;5081963;28;20486;-76
2023/10/13 12:21:44;;;;;;;6.00;3.50;;;;;;;30.51;21.05;97584.03;5099098;28;20448;-76
2023/10/13 12:24:21;;;;;;;7.17;3.87;;;;;;;30.36;21.45;97577.09;5100710;28;20488;-76
2023/10/13 12:26:48;;;;;;;5.97;4.13;;;;;;;30.24;21.55;97573.41;5097489;28;20597;-79
2023/10/13 12:29:22;;;;;;;5.60;4.87;;;;;;;30.69;21.85;97565.94;5100492;28;20543;-76
2023/10/13 12:32:01;;;;;;;5.67;3.10;;;;;;;30.83;21.03;97567.63;5086125;28;20480;-76
2023/10/13 12:34:57;;;;;;;5.77;3.50;;;;;;;30.73;21.18;97554.88;5093219;28;20457;-75
2023/10/13 12:37:37;;;;;;;3.83;3.33;;;;;;;30.90;21.82;97548.28;5093533;28;20485;-73
2023/10/13 12:51:40;;;;;;;7.70;3.50;;;;;;;30.76;21.62;97531.84;5096742;28;20563;-75
2023/10/13 12:54:13;;;;;;;5.50;3.60;;;;;;;30.56;21.97;97538.25;5095548;28;20457;-75
2023/10/13 12:56:41;;;;;;;5.63;3.53;;;;;;;30.10;22.48;97539.38;5105327;28;20467;-76
2023/10/13 12:59:09;;;;;;;5.30;3.47;;;;;;;29.28;22.20;97538.91;5104146;28;21010;-76
2023/10/13 13:01:41;;;;;;;3.33;3.00;;;;;;;29.24;23.19;97535.97;5105258;28;20456;-76
2023/10/13 13:04:18;;;;;;;6.57;4.10;;;;;;;29.29;23.25;97521.84;5099599;28;20469;-75
2023/10/13 13:06:45;;;;;;;4.80;4.10;;;;;;;29.13;23.37;97523.56;5106072;28;20826;-75
2023/10/13 13:09:12;;;;;;;6.03;3.60;;;;;;;29.21;23.45;97525.50;5110912;28;20513;-76
2023/10/13 13:11:39;;;;;;;6.17;3.53;;;;;;;29.38;23.69;97522.59;5107303;28;21311;-75
2023/10/13 13:14:08;;;;;;;4.50;3.20;;;;;;;29.91;22.75;97506.31;5101006;28;20448;-75
2023/10/13 13:16:35;;;;;;;4.47;3.67;;;;;;;30.27;22.19;97506.50;5104599;28;20460;-75
2023/10/13 13:19:09;;;;;;;4.20;3.40;;;;;;;30.22;21.24;97500.31;5106647;28;20476;-75
2023/10/13 13:21:38;;;;;;;4.00;3.23;;;;;;;29.98;20.56;97509.38;5104775;28;20464;-75
2023/10/13 13:24:10;;;;;;;5.23;3.30;;;;;;;30.27;20.33;97503.72;5099640;28;20464;-75
2023/10/13 13:26:40;;;;;;;5.30;3.60;;;;;;;30.57;19.81;97498.84;5096927;28;20515;-75
2023/10/13 13:29:09;;;;;;;5.97;3.10;;;;;;;30.69;19.84;97490.47;5105693;28;20525;-75
2023/10/13 13:31:40;;;;;;;4.73;3.40;;;;;;;30.48;20.04;97486.94;5105511;28;20475;-75
2023/10/13 13:34:10;;;;;;;4.33;3.33;;;;;;;30.22;20.11;97492.75;5105019;28;20460;-75
2023/10/13 13:36:38;;;;;;;4.43;3.00;;;;;;;30.51;20.09;97477.03;5102638;28;20543;-75
2023/10/13 13:39:06;;;;;;;3.70;2.80;;;;;;;30.85;19.63;97487.84;5104689;28;20592;-75
2023/10/13 13:41:33;;;;;;;3.57;2.80;;;;;;;30.63;19.63;97480.69;5102393;28;23250;-75
2023/10/13 13:44:13;;;;;;;6.67;3.07;;;;;;;30.44;19.70;97466.44;5102768;28;20525;-76
2023/10/13 13:46:42;;;;;;;4.03;3.37;;;;;;;30.49;20.05;97460.63;5096809;28;20467;-75
2023/10/13 13:49:17;;;;;;;4.93;3.43;;;;;;;30.70;20.09;97461.38;5083202;28;20547;-75
2023/10/13 13:51:51;;;;;;;5.90;3.07;;;;;;;30.62;19.58;97445.53;5089861;28;21034;-75
2023/10/13 13:54:20;;;;;;;5.53;3.80;;;;;;;30.59;19.83;97443.44;5093241;28;20540;-75
2023/10/13 13:56:47;;;;;;;4.83;3.33;;;;;;;30.79;20.06;97438.91;5093597;28;20480;-75
2023/10/13 13:59:19;;;;;;;6.20;3.40;;;;;;;30.59;19.47;97431.44;5099049;28;20480;-75
2023/10/13 14:01:47;;;;;;;4.17;3.73;;;;;;;30.61;19.77;97432.72;5099049;28;20540;-75
2023/10/13 14:04:17;;;;;;;4.23;3.20;;;;;;;30.42;19.93;97421.25;5094393;28;20452;-75
2023/10/13 14:06:45;;;;;;;6.53;3.73;;;;;;;30.37;20.42;97415.91;5098706;28;20459;-75